Celebrity Constellation — 9HJB9 — position and weather

sailwx.info

Track history (hours):
 
Tides and Currents Weather Stations Pressure Air Temp Water Temp Dewpoint Dewpoint Depression Visibility Wind Speed Wind Dir Waves Ship Positions

Celebrity Constellation

Last reported at 2020-Mar-29 12:19 UTC. Time now 2020-Mar-29 14:17 UTC.
Position N 37°31' E 023°52'.

Length 294 m; draft 8.3 m.

Type: Passenger vessel. MMSI: 249046000.

Date/timePositionNaut miles runAvg speedWind from/ knotsBaromVisibWave heightAir tempDewpointWater temp
2020-Mar-29 12:19N 37°31' E 023°52'0 0.0
2020-Mar-29 11:01N 37°31' E 023°52'0 0.0
2020-Mar-29 08:55N 37°31' E 023°52'0 0.0
2020-Mar-29 03:13N 37°31' E 023°52'0 0.0
2020-Mar-28 23:13N 37°31' E 023°52'0 0.0
2020-Mar-28 19:13N 37°31' E 023°52'0 0.0
2020-Mar-28 15:13N 37°31' E 023°52'0 0.0
2020-Mar-28 12:25N 37°31' E 023°52'0 0.0
2020-Mar-28 11:55N 37°31' E 023°52'0 0.0
2020-Mar-28 11:13N 37°31' E 023°52'0 0.0
2020-Mar-28 06:25N 37°31' E 023°52'0 0.0
2020-Mar-28 05:55N 37°31' E 023°52'0 0.0
2020-Mar-28 02:37N 37°31' E 023°52'0 0.1
2020-Mar-28 02:25N 37°31' E 023°52'0 0.0
2020-Mar-28 01:49N 37°31' E 023°52'0 0.0
2020-Mar-27 16:43N 37°31' E 023°52'0 0.0
2020-Mar-27 16:25N 37°31' E 023°52'0 0.2
2020-Mar-27 15:49N 37°31' E 023°52'0 0.1
2020-Mar-27 14:55N 37°31' E 023°52'0 0.0
2020-Mar-27 12:25N 37°31' E 023°52'0 0.3
2020-Mar-27 11:37N 37°31' E 023°52'0 0.0
2020-Mar-27 10:19N 37°31' E 023°52'0 0.0
2020-Mar-27 05:49N 37°31' E 023°52'0 0.0
2020-Mar-26 21:25N 37°31' E 023°52'0 0.0
2020-Mar-26 20:37N 37°31' E 023°52'0 0.0
2020-Mar-26 17:55N 37°31' E 023°52'0 0.1
2020-Mar-26 17:19N 37°31' E 023°52'0 0.0
2020-Mar-26 14:55N 37°31' E 023°51'0 0.0
2020-Mar-26 13:19N 37°31' E 023°51'0 0.1
2020-Mar-26 10:55N 37°31' E 023°52'0 0.1
2020-Mar-26 09:55N 37°31' E 023°52'0 0.0
2020-Mar-26 09:25N 37°31' E 023°52'0 0.0
2020-Mar-26 07:55N 37°31' E 023°52'0 0.0
2020-Mar-26 07:25N 37°31' E 023°52'0 0.0
2020-Mar-26 06:43N 37°31' E 023°52'0 0.1
2020-Mar-26 06:25N 37°31' E 023°52'0 0.0
2020-Mar-26 05:49N 37°31' E 023°52'0 0.1
2020-Mar-26 05:25N 37°31' E 023°52'0 0.0
2020-Mar-26 04:25N 37°31' E 023°52'0 0.0
2020-Mar-26 03:01N 37°31' E 023°52'0 0.0
2020-Mar-25 22:43N 37°31' E 023°52'0 0.0
2020-Mar-25 15:28N 37°31' E 023°52'0 0.0
2020-Mar-25 13:25N 37°31' E 023°52'0 0.1
2020-Mar-25 12:58N 37°31' E 023°52'0 0.0
2020-Mar-25 10:28N 37°31' E 023°52'0 0.0
2020-Mar-25 08:25N 37°31' E 023°52'0 0.4
2020-Mar-25 08:00N 37°31' E 023°51'24 9.7
2020-Mar-25 05:30N 37°52' E 023°36'4 1.1
2020-Mar-25 01:30N 37°56' E 023°37'0 0.0
2020-Mar-25 01:00N 37°56' E 023°37'0 0.0
2020-Mar-25 00:30N 37°56' E 023°37'0 0.0
2020-Mar-24 23:00N 37°56' E 023°37'0 0.0
2020-Mar-24 21:30N 37°56' E 023°37'0 0.0
2020-Mar-24 20:00N 37°56' E 023°37'0 0.0
2020-Mar-24 19:27N 37°56' E 023°37'0 0.0
2020-Mar-24 19:00N 37°56' E 023°37'0 0.0
2020-Mar-24 17:27N 37°56' E 023°37'0 0.0
2020-Mar-24 17:00N 37°56' E 023°37'2 1.4
2020-Mar-24 15:31N 37°54' E 023°36'5 3.5
2020-Mar-24 14:00N 37°52' E 023°30'0 0.0
2020-Mar-24 13:30N 37°52' E 023°30'0 0.0
2020-Mar-24 13:00N 37°52' E 023°30'0 0.0
2020-Mar-24 10:00N 37°52' E 023°31'0 0.0
2020-Mar-24 08:30N 37°52' E 023°31'0 0.0
2020-Mar-24 08:00N 37°52' E 023°31'0 0.1
2020-Mar-24 07:30N 37°52' E 023°30'7 3.6
2020-Mar-24 05:30N 37°50' E 023°39'7 6.5
2020-Mar-24 04:30N 37°44' E 023°43'46811.3
2020-Mar-22 11:00N 34°30' E 032°30'3012.1 250 / 181016.2 5.4 16.0 15.0
2020-Mar-22 08:30N 34°37' E 033°05'3 1.1
2020-Mar-22 06:00N 34°40' E 033°04'0 0.1
2020-Mar-22 05:00N 34°40' E 033°04'0 0.0
2020-Mar-22 03:30N 34°40' E 033°04'0 0.0
2020-Mar-22 02:30N 34°40' E 033°04'0 0.0
2020-Mar-21 23:30N 34°40' E 033°04'0 0.0
2020-Mar-21 22:30N 34°40' E 033°04'0 0.0
2020-Mar-21 20:30N 34°40' E 033°04'0 0.0
2020-Mar-21 19:30N 34°40' E 033°04'0 0.0
2020-Mar-21 18:00N 34°40' E 033°04'0 0.0
2020-Mar-21 17:30N 34°40' E 033°04'0 0.0
2020-Mar-21 16:30N 34°40' E 033°04'0 0.0
2020-Mar-21 13:30N 34°40' E 033°04'0 0.1
2020-Mar-21 11:30N 34°40' E 033°04'0 0.1
2020-Mar-21 09:30N 34°40' E 033°04'  
Track history (hours):
 
Tides and Currents Weather Stations Pressure Air Temp Water Temp Dewpoint Dewpoint Depression Visibility Wind Speed Wind Dir Waves Ship Positions

Celebrity Constellation

Last reported at 2020-Mar-29 12:19 UTC. Time now 2020-Mar-29 14:17 UTC.
Position N 37°31' E 023°52'.

Length 294 m; draft 8.3 m.

Type: Passenger vessel. MMSI: 249046000.

Date/timePositionNaut miles runAvg speedWind from/ knotsBaromVisibWave heightAir tempDewpointWater temp
2020-Mar-29 12:19N 37°31' E 023°52'0 0.0
2020-Mar-29 11:01N 37°31' E 023°52'0 0.0
2020-Mar-29 08:55N 37°31' E 023°52'0 0.0
2020-Mar-29 03:13N 37°31' E 023°52'0 0.0
2020-Mar-28 23:13N 37°31' E 023°52'0 0.0
2020-Mar-28 19:13N 37°31' E 023°52'0 0.0
2020-Mar-28 15:13N 37°31' E 023°52'0 0.0
2020-Mar-28 12:25N 37°31' E 023°52'0 0.0
2020-Mar-28 11:55N 37°31' E 023°52'0 0.0
2020-Mar-28 11:13N 37°31' E 023°52'0 0.0
2020-Mar-28 06:25N 37°31' E 023°52'0 0.0
2020-Mar-28 05:55N 37°31' E 023°52'0 0.0
2020-Mar-28 02:37N 37°31' E 023°52'0 0.1
2020-Mar-28 02:25N 37°31' E 023°52'0 0.0
2020-Mar-28 01:49N 37°31' E 023°52'0 0.0
2020-Mar-27 16:43N 37°31' E 023°52'0 0.0
2020-Mar-27 16:25N 37°31' E 023°52'0 0.2
2020-Mar-27 15:49N 37°31' E 023°52'0 0.1
2020-Mar-27 14:55N 37°31' E 023°52'0 0.0
2020-Mar-27 12:25N 37°31' E 023°52'0 0.3
2020-Mar-27 11:37N 37°31' E 023°52'0 0.0
2020-Mar-27 10:19N 37°31' E 023°52'0 0.0
2020-Mar-27 05:49N 37°31' E 023°52'0 0.0
2020-Mar-26 21:25N 37°31' E 023°52'0 0.0
2020-Mar-26 20:37N 37°31' E 023°52'0 0.0
2020-Mar-26 17:55N 37°31' E 023°52'0 0.1
2020-Mar-26 17:19N 37°31' E 023°52'0 0.0
2020-Mar-26 14:55N 37°31' E 023°51'0 0.0
2020-Mar-26 13:19N 37°31' E 023°51'0 0.1
2020-Mar-26 10:55N 37°31' E 023°52'0 0.1
2020-Mar-26 09:55N 37°31' E 023°52'0 0.0
2020-Mar-26 09:25N 37°31' E 023°52'0 0.0
2020-Mar-26 07:55N 37°31' E 023°52'0 0.0
2020-Mar-26 07:25N 37°31' E 023°52'0 0.0
2020-Mar-26 06:43N 37°31' E 023°52'0 0.1
2020-Mar-26 06:25N 37°31' E 023°52'0 0.0
2020-Mar-26 05:49N 37°31' E 023°52'0 0.1
2020-Mar-26 05:25N 37°31' E 023°52'0 0.0
2020-Mar-26 04:25N 37°31' E 023°52'0 0.0
2020-Mar-26 03:01N 37°31' E 023°52'0 0.0
2020-Mar-25 22:43N 37°31' E 023°52'0 0.0
2020-Mar-25 15:28N 37°31' E 023°52'0 0.0
2020-Mar-25 13:25N 37°31' E 023°52'0 0.1
2020-Mar-25 12:58N 37°31' E 023°52'0 0.0
2020-Mar-25 10:28N 37°31' E 023°52'0 0.0
2020-Mar-25 08:25N 37°31' E 023°52'0 0.4
2020-Mar-25 08:00N 37°31' E 023°51'24 9.7
2020-Mar-25 05:30N 37°52' E 023°36'4 1.1
2020-Mar-25 01:30N 37°56' E 023°37'0 0.0
2020-Mar-25 01:00N 37°56' E 023°37'0 0.0
2020-Mar-25 00:30N 37°56' E 023°37'0 0.0
2020-Mar-24 23:00N 37°56' E 023°37'0 0.0
2020-Mar-24 21:30N 37°56' E 023°37'0 0.0
2020-Mar-24 20:00N 37°56' E 023°37'0 0.0
2020-Mar-24 19:27N 37°56' E 023°37'0 0.0
2020-Mar-24 19:00N 37°56' E 023°37'0 0.0
2020-Mar-24 17:27N 37°56' E 023°37'0 0.0
2020-Mar-24 17:00N 37°56' E 023°37'2 1.4
2020-Mar-24 15:31N 37°54' E 023°36'5 3.5
2020-Mar-24 14:00N 37°52' E 023°30'0 0.0
2020-Mar-24 13:30N 37°52' E 023°30'0 0.0
2020-Mar-24 13:00N 37°52' E 023°30'0 0.0
2020-Mar-24 10:00N 37°52' E 023°31'0 0.0
2020-Mar-24 08:30N 37°52' E 023°31'0 0.0
2020-Mar-24 08:00N 37°52' E 023°31'0 0.1
2020-Mar-24 07:30N 37°52' E 023°30'7 3.6
2020-Mar-24 05:30N 37°50' E 023°39'7 6.5
2020-Mar-24 04:30N 37°44' E 023°43'46811.3
2020-Mar-22 11:00N 34°30' E 032°30'3012.1 250 / 181016.2 5.4 16.0 15.0
2020-Mar-22 08:30N 34°37' E 033°05'3 1.1
2020-Mar-22 06:00N 34°40' E 033°04'0 0.1
2020-Mar-22 05:00N 34°40' E 033°04'0 0.0
2020-Mar-22 03:30N 34°40' E 033°04'0 0.0
2020-Mar-22 02:30N 34°40' E 033°04'0 0.0
2020-Mar-21 23:30N 34°40' E 033°04'0 0.0
2020-Mar-21 22:30N 34°40' E 033°04'0 0.0
2020-Mar-21 20:30N 34°40' E 033°04'0 0.0
2020-Mar-21 19:30N 34°40' E 033°04'0 0.0
2020-Mar-21 18:00N 34°40' E 033°04'0 0.0
2020-Mar-21 17:30N 34°40' E 033°04'0 0.0
2020-Mar-21 16:30N 34°40' E 033°04'0 0.0
2020-Mar-21 13:30N 34°40' E 033°04'0 0.1
2020-Mar-21 11:30N 34°40' E 033°04'0 0.1
2020-Mar-21 09:30N 34°40' E 033°04'  

Dump ship's entire track history